createdAt,value
2018-02-22T00:00:27.884Z,25.10
2018-02-22T00:06:33.134Z,28.73
2018-02-22T00:12:37.775Z,29.80
2018-02-22T00:18:42.939Z,29.40
2018-02-22T00:24:47.662Z,27.20
2018-02-22T00:30:56.823Z,26.20
2018-02-22T00:37:02.186Z,25.87
2018-02-22T00:43:07.536Z,27.47
2018-02-22T00:49:12.668Z,34.53
2018-02-22T00:55:17.624Z,26.37
2018-02-22T01:01:26.481Z,22.07
2018-02-22T01:07:31.261Z,24.80
2018-02-22T01:13:35.917Z,28.80
2018-02-22T01:19:40.565Z,25.10
2018-02-22T01:25:45.218Z,24.00
2018-02-22T01:31:54.087Z,28.10
2018-02-22T01:38:00.481Z,28.53
2018-02-22T01:44:06.317Z,24.27
2018-02-22T01:50:13.143Z,22.80
2018-02-22T01:56:18.210Z,25.03
2018-02-22T02:02:26.440Z,26.33
2018-02-22T02:08:32.169Z,26.33
2018-02-22T02:14:38.702Z,30.20
2018-02-22T02:20:43.856Z,25.23
2018-02-22T02:26:50.569Z,26.73
2018-02-22T02:32:56.612Z,24.90
2018-02-22T02:39:02.275Z,25.10
2018-02-22T02:45:07.055Z,24.17
2018-02-22T02:51:12.796Z,25.60
2018-02-22T02:57:19.619Z,30.63
2018-02-22T03:03:26.205Z,31.23
2018-02-22T03:09:31.148Z,23.30
2018-02-22T03:15:35.832Z,31.03
2018-02-22T03:21:40.556Z,28.97
2018-02-22T03:27:47.223Z,31.67
2018-02-22T03:33:53.665Z,35.10
2018-02-22T03:39:58.679Z,30.70
2018-02-22T03:46:03.333Z,31.90
2018-02-22T03:52:08.300Z,39.83
2018-02-22T03:58:13.664Z,33.20
2018-02-22T04:04:18.752Z,37.57
2018-02-22T04:10:25.417Z,36.47
2018-02-22T04:16:30.506Z,36.57
2018-02-22T04:22:36.850Z,35.10
2018-02-22T04:28:42.125Z,35.57
2018-02-22T04:34:46.798Z,33.33
2018-02-22T04:40:52.586Z,38.23
2018-02-22T04:46:59.201Z,39.23
2018-02-22T04:53:04.967Z,40.00
2018-02-22T04:59:09.624Z,36.00
2018-02-22T05:05:14.460Z,38.27
2018-02-22T05:11:19.087Z,36.57
2018-02-22T05:17:26.467Z,33.83
2018-02-22T05:23:34.037Z,34.80
2018-02-22T05:29:39.514Z,27.37
2018-02-22T05:35:47.209Z,28.20
2018-02-22T05:41:54.029Z,29.20
2018-02-22T05:48:00.746Z,27.20
2018-02-22T05:54:06.612Z,27.60
2018-02-22T06:00:12.312Z,31.90
2018-02-22T06:06:17.595Z,26.17
2018-02-22T06:12:26.735Z,33.30
2018-02-22T06:18:31.769Z,33.80
2018-02-22T06:24:36.388Z,32.07
2018-02-22T06:30:41.029Z,38.03
2018-02-22T06:36:45.739Z,34.33
2018-02-22T06:42:50.485Z,34.07
2018-02-22T06:48:55.531Z,32.17
2018-02-22T06:55:00.977Z,33.10
2018-02-22T07:01:05.803Z,36.53
2018-02-22T07:07:10.601Z,33.97
2018-02-22T07:13:15.396Z,29.67
2018-02-22T07:19:21.798Z,32.80
2018-02-22T07:25:26.859Z,34.50
2018-02-22T07:31:33.089Z,32.43
2018-02-22T07:37:38.559Z,28.93
2018-02-22T07:43:43.206Z,30.03
2018-02-22T07:49:47.820Z,25.97
2018-02-22T07:55:55.379Z,27.33
2018-02-22T08:02:01.052Z,28.37
2018-02-22T08:08:05.760Z,28.27
2018-02-22T08:14:10.424Z,26.40
2018-02-22T08:20:16.720Z,25.90
2018-02-22T08:26:25.699Z,36.53
2018-02-22T08:32:30.665Z,33.20
2018-02-22T08:38:36.810Z,35.90
2018-02-22T08:44:41.967Z,27.87
2018-02-22T08:50:47.300Z,31.07
2018-02-22T08:56:54.191Z,33.33
2018-02-22T09:02:58.913Z,32.60
2018-02-22T09:09:03.521Z,34.03
2018-02-22T09:15:09.433Z,59.37
2018-02-22T09:21:15.218Z,33.67
2018-02-22T09:27:21.001Z,34.93
2018-02-22T09:33:25.570Z,32.07
2018-02-22T09:39:32.764Z,29.07
2018-02-22T09:45:39.137Z,33.33
2018-02-22T09:51:46.132Z,31.67
2018-02-22T09:57:51.593Z,39.60
2018-02-22T10:03:56.996Z,30.10
2018-02-22T10:10:01.674Z,19.00
2018-02-22T10:16:06.608Z,18.47
2018-02-22T10:22:11.283Z,13.93
2018-02-22T10:28:16.023Z,19.40
2018-02-22T10:34:26.878Z,17.90
2018-02-22T10:40:37.198Z,16.40
2018-02-22T10:46:46.687Z,20.00
2018-02-22T10:52:58.501Z,18.60
2018-02-22T10:59:03.210Z,17.90
2018-02-22T11:05:08.613Z,19.17
2018-02-22T11:11:14.071Z,20.20
2018-02-22T11:17:19.786Z,18.50
2018-02-22T11:23:25.699Z,16.97
2018-02-22T11:29:30.518Z,18.33
2018-02-22T11:35:36.012Z,16.90
2018-02-22T11:41:40.668Z,21.00
2018-02-22T11:47:48.436Z,18.77
2018-02-22T11:53:57.916Z,22.77
2018-02-22T12:00:05.388Z,19.67
2018-02-22T12:06:16.306Z,19.73
2018-02-22T12:12:24.028Z,14.27
2018-02-22T12:18:29.138Z,14.77
2018-02-22T12:24:33.752Z,16.90
2018-02-22T12:30:39.868Z,14.90
2018-02-22T12:36:55.859Z,16.47
2018-02-22T12:43:01.669Z,13.77
2018-02-22T12:49:32.834Z,16.70
2018-02-22T12:55:44.100Z,12.90
2018-02-22T13:01:51.514Z,11.07
2018-02-22T13:07:57.082Z,10.97
2018-02-22T13:14:08.144Z,14.03
2018-02-22T13:20:19.372Z,12.77
2018-02-22T13:26:31.197Z,14.33
2018-02-22T13:32:55.199Z,10.83
2018-02-22T13:39:18.975Z,14.43
2018-02-22T13:45:34.235Z,13.33
2018-02-22T13:51:39.644Z,11.70
2018-02-22T13:57:44.423Z,12.27
2018-02-22T14:03:52.434Z,14.90
2018-02-22T14:19:42.207Z,8.60
2018-02-22T14:25:46.929Z,11.07
2018-02-22T14:32:01.321Z,21.63
2018-02-22T14:54:21.470Z,9.07
2018-02-22T15:00:29.269Z,10.70
2018-02-22T15:22:49.464Z,13.43
2018-02-22T15:28:54.883Z,14.90
2018-02-22T15:34:59.568Z,12.80
2018-02-22T15:41:08.481Z,12.70
2018-02-22T15:47:13.351Z,12.57
2018-02-22T15:53:18.365Z,10.23
2018-02-22T15:59:23.971Z,12.53
2018-02-22T16:05:32.286Z,16.83
2018-02-22T16:11:37.316Z,12.03
2018-02-22T16:17:42.040Z,21.73
2018-02-22T16:23:46.649Z,14.40
2018-02-22T16:29:51.522Z,17.13
2018-02-22T16:35:56.150Z,13.33
2018-02-22T16:42:01.022Z,16.60
2018-02-22T16:48:05.612Z,14.40
2018-02-22T16:54:10.375Z,15.33
2018-02-22T17:00:17.470Z,19.83
2018-02-22T17:06:25.393Z,16.83
2018-02-22T17:12:30.074Z,14.53
2018-02-22T17:18:34.690Z,10.67
2018-02-22T17:24:40.142Z,11.97
2018-02-22T17:30:50.207Z,16.40
2018-02-22T17:37:10.549Z,15.73
2018-02-22T17:43:15.192Z,18.10
2018-02-22T17:49:23.821Z,13.90
2018-02-22T17:55:28.553Z,14.57
2018-02-22T18:01:33.226Z,13.20
2018-02-22T18:07:38.030Z,17.63
2018-02-22T18:13:45.049Z,16.90
2018-02-22T18:19:57.608Z,19.27
2018-02-22T18:26:03.041Z,14.67
2018-02-22T18:32:07.819Z,20.47
2018-02-22T18:38:12.567Z,17.27
2018-02-22T18:44:24.498Z,16.97
2018-02-22T18:50:30.661Z,16.53
2018-02-22T18:56:39.229Z,17.57
2018-02-22T19:02:44.079Z,17.40
2018-02-22T19:08:49.036Z,18.03
2018-02-22T19:14:57.467Z,20.93
2018-02-22T19:21:02.927Z,18.37
2018-02-22T19:27:07.600Z,16.27
2018-02-22T19:33:13.509Z,15.27
2018-02-22T19:39:19.430Z,18.53
2018-02-22T19:45:25.126Z,15.30
2018-02-22T19:51:30.666Z,14.23
2018-02-22T19:57:36.219Z,14.10
2018-02-22T20:03:41.254Z,20.87
2018-02-22T20:09:45.991Z,17.70
2018-02-22T20:15:51.741Z,16.30
2018-02-22T20:21:56.531Z,16.40
2018-02-22T20:28:01.330Z,14.67
2018-02-22T20:34:07.025Z,18.87
2018-02-22T20:40:11.939Z,21.00
2018-02-22T20:46:16.699Z,18.80
2018-02-22T20:52:23.631Z,18.93
2018-02-22T20:58:36.725Z,16.47
2018-02-22T21:04:42.964Z,17.13
2018-02-22T21:10:50.320Z,19.43
2018-02-22T21:16:57.149Z,24.47
2018-02-22T21:23:04.051Z,14.63
2018-02-22T21:29:08.879Z,15.93
2018-02-22T21:35:14.283Z,18.67
2018-02-22T21:41:19.786Z,16.53
2018-02-22T21:47:24.468Z,18.17
2018-02-22T21:53:29.108Z,18.53
2018-02-22T21:59:33.775Z,18.77
2018-02-22T22:05:38.539Z,19.70
2018-02-22T22:11:45.220Z,24.37
2018-02-22T22:17:50.175Z,19.33
2018-02-22T22:23:54.879Z,20.93
2018-02-22T22:30:01.604Z,17.00
2018-02-22T22:36:08.573Z,16.47
2018-02-22T22:42:14.089Z,21.43
2018-02-22T22:48:19.120Z,20.23
2018-02-22T22:54:24.142Z,19.37
2018-02-22T23:00:28.750Z,21.63
2018-02-22T23:06:33.401Z,28.83
2018-02-22T23:12:38.866Z,23.03
2018-02-22T23:18:45.887Z,25.70
2018-02-22T23:24:56.451Z,22.10
2018-02-22T23:31:02.085Z,20.13
2018-02-22T23:37:06.748Z,21.37
2018-02-22T23:43:11.458Z,22.67
2018-02-22T23:49:16.374Z,25.43
2018-02-22T23:55:24.304Z,22.40
